sensor_id;sensor_type;location;lat;lon;timestamp;pressure;altitude;pressure_sealevel;temperature;humidity
64792;BME280;51226;47.504;19.074;2023-07-29T00:01:00;99782.34;;;23.30;72.07
64792;BME280;51226;47.504;19.074;2023-07-29T00:04:03;99782.59;;;23.21;72.52
64792;BME280;51226;47.504;19.074;2023-07-29T00:07:07;99789.72;;;23.19;72.85
64792;BME280;51226;47.504;19.074;2023-07-29T00:10:10;99788.03;;;23.15;73.04
64792;BME280;51226;47.504;19.074;2023-07-29T00:13:12;99780.97;;;23.13;73.17
64792;BME280;51226;47.504;19.074;2023-07-29T00:16:15;99788.09;;;23.11;73.41
64792;BME280;51226;47.504;19.074;2023-07-29T00:19:19;99781.13;;;23.07;73.53
64792;BME280;51226;47.504;19.074;2023-07-29T00:22:25;99782.03;;;23.05;73.46
64792;BME280;51226;47.504;19.074;2023-07-29T00:25:28;99784.75;;;23.02;73.49
64792;BME280;51226;47.504;19.074;2023-07-29T00:28:31;99781.25;;;23.00;73.33
64792;BME280;51226;47.504;19.074;2023-07-29T00:31:35;99779.47;;;23.00;73.21
64792;BME280;51226;47.504;19.074;2023-07-29T00:34:38;99778.56;;;23.01;73.23
64792;BME280;51226;47.504;19.074;2023-07-29T00:37:41;99780.37;;;22.99;73.24
64792;BME280;51226;47.504;19.074;2023-07-29T00:40:44;99780.50;;;22.94;73.76
64792;BME280;51226;47.504;19.074;2023-07-29T00:43:46;99783.22;;;22.91;73.54
64792;BME280;51226;47.504;19.074;2023-07-29T00:46:52;99779.69;;;22.91;73.39
64792;BME280;51226;47.504;19.074;2023-07-29T00:49:55;99785.09;;;22.86;73.36
64792;BME280;51226;47.504;19.074;2023-07-29T00:52:58;99782.44;;;22.86;72.85
64792;BME280;51226;47.504;19.074;2023-07-29T00:56:01;99771.87;;;22.83;72.52
64792;BME280;51226;47.504;19.074;2023-07-29T00:59:03;99772.87;;;22.79;72.47
64792;BME280;51226;47.504;19.074;2023-07-29T01:02:06;99778.28;;;22.74;72.71
64792;BME280;51226;47.504;19.074;2023-07-29T01:05:11;99779.16;;;22.73;72.55
64792;BME280;51226;47.504;19.074;2023-07-29T01:08:21;99774.78;;;22.72;72.08
64792;BME280;51226;47.504;19.074;2023-07-29T01:11:31;99771.19;;;22.73;71.92
64792;BME280;51226;47.504;19.074;2023-07-29T01:14:37;99776.59;;;22.70;71.50
64792;BME280;51226;47.504;19.074;2023-07-29T01:17:43;99779.25;;;22.70;71.22
64792;BME280;51226;47.504;19.074;2023-07-29T01:20:48;99773.94;;;22.70;70.97
64792;BME280;51226;47.504;19.074;2023-07-29T01:23:53;99772.47;;;22.57;71.31
64792;BME280;51226;47.504;19.074;2023-07-29T01:27:00;99769.09;;;22.49;71.48
64792;BME280;51226;47.504;19.074;2023-07-29T01:30:04;99771.72;;;22.50;70.85
64792;BME280;51226;47.504;19.074;2023-07-29T01:33:18;99776.31;;;22.42;71.12
64792;BME280;51226;47.504;19.074;2023-07-29T01:36:22;99775.62;;;22.31;71.88
64792;BME280;51226;47.504;19.074;2023-07-29T01:39:29;99774.69;;;22.33;71.78
64792;BME280;51226;47.504;19.074;2023-07-29T01:42:35;99772.97;;;22.31;72.11
64792;BME280;51226;47.504;19.074;2023-07-29T01:45:38;99772.37;;;22.15;72.68
64792;BME280;51226;47.504;19.074;2023-07-29T01:48:41;99768.94;;;22.08;72.87
64792;BME280;51226;47.504;19.074;2023-07-29T01:51:44;99773.44;;;22.05;73.03
64792;BME280;51226;47.504;19.074;2023-07-29T01:54:47;99770.75;;;22.08;72.53
64792;BME280;51226;47.504;19.074;2023-07-29T01:57:50;99774.88;;;22.23;71.41
64792;BME280;51226;47.504;19.074;2023-07-29T02:00:54;99770.50;;;22.20;71.18
64792;BME280;51226;47.504;19.074;2023-07-29T02:03:57;99777.81;;;22.09;71.48
64792;BME280;51226;47.504;19.074;2023-07-29T02:07:00;99772.63;;;22.02;71.61
64792;BME280;51226;47.504;19.074;2023-07-29T02:10:03;99771.87;;;21.94;71.92
64792;BME280;51226;47.504;19.074;2023-07-29T02:13:06;99783.41;;;21.92;72.14
64792;BME280;51226;47.504;19.074;2023-07-29T02:16:09;99785.28;;;21.87;72.26
64792;BME280;51226;47.504;19.074;2023-07-29T02:19:12;99780.97;;;21.81;72.38
64792;BME280;51226;47.504;19.074;2023-07-29T02:22:16;99771.25;;;21.80;71.70
64792;BME280;51226;47.504;19.074;2023-07-29T02:25:19;99766.81;;;21.80;71.55
64792;BME280;51226;47.504;19.074;2023-07-29T02:28:22;99769.50;;;21.79;71.32
64792;BME280;51226;47.504;19.074;2023-07-29T02:31:24;99775.81;;;21.72;71.79
64792;BME280;51226;47.504;19.074;2023-07-29T02:34:28;99786.56;;;21.64;72.00
64792;BME280;51226;47.504;19.074;2023-07-29T02:37:30;99791.03;;;21.62;72.57
64792;BME280;51226;47.504;19.074;2023-07-29T02:40:33;99785.75;;;21.60;72.91
64792;BME280;51226;47.504;19.074;2023-07-29T02:43:36;99782.19;;;21.60;73.15
64792;BME280;51226;47.504;19.074;2023-07-29T02:46:39;99776.06;;;21.58;73.33
64792;BME280;51226;47.504;19.074;2023-07-29T02:52:44;99788.22;;;21.71;72.26
64792;BME280;51226;47.504;19.074;2023-07-29T02:55:48;99794.47;;;21.69;72.40
64792;BME280;51226;47.504;19.074;2023-07-29T02:58:51;99794.38;;;21.73;72.41
64792;BME280;51226;47.504;19.074;2023-07-29T03:01:54;99788.37;;;21.63;72.72
64792;BME280;51226;47.504;19.074;2023-07-29T03:04:57;99784.94;;;21.57;73.35
64792;BME280;51226;47.504;19.074;2023-07-29T03:07:59;99795.59;;;21.54;73.53
64792;BME280;51226;47.504;19.074;2023-07-29T03:11:06;99792.03;;;21.55;73.49
64792;BME280;51226;47.504;19.074;2023-07-29T03:14:09;99796.22;;;21.68;73.10
64792;BME280;51226;47.504;19.074;2023-07-29T03:17:12;99788.41;;;21.60;73.47
64792;BME280;51226;47.504;19.074;2023-07-29T03:20:15;99793.84;;;21.53;73.79
64792;BME280;51226;47.504;19.074;2023-07-29T03:23:17;99788.59;;;21.48;74.11
64792;BME280;51226;47.504;19.074;2023-07-29T03:26:20;99797.44;;;21.49;74.20
64792;BME280;51226;47.504;19.074;2023-07-29T03:29:23;99798.34;;;21.46;74.37
64792;BME280;51226;47.504;19.074;2023-07-29T03:32:26;99793.03;;;21.44;74.60
64792;BME280;51226;47.504;19.074;2023-07-29T03:35:29;99794.87;;;21.41;75.15
64792;BME280;51226;47.504;19.074;2023-07-29T03:38:31;99795.78;;;21.38;75.64
64792;BME280;51226;47.504;19.074;2023-07-29T03:41:35;99794.91;;;21.38;75.92
64792;BME280;51226;47.504;19.074;2023-07-29T03:44:39;99793.19;;;21.37;76.24
64792;BME280;51226;47.504;19.074;2023-07-29T03:47:42;99789.66;;;21.35;76.55
64792;BME280;51226;47.504;19.074;2023-07-29T03:50:44;99794.06;;;21.37;76.82
64792;BME280;51226;47.504;19.074;2023-07-29T03:53:47;99789.56;;;21.41;76.75
64792;BME280;51226;47.504;19.074;2023-07-29T03:56:50;99796.56;;;21.48;76.60
64792;BME280;51226;47.504;19.074;2023-07-29T03:59:52;99797.34;;;21.53;76.56
64792;BME280;51226;47.504;19.074;2023-07-29T04:02:55;99800.00;;;21.53;76.91
64792;BME280;51226;47.504;19.074;2023-07-29T04:05:58;99802.63;;;21.55;77.16
64792;BME280;51226;47.504;19.074;2023-07-29T04:09:01;99807.94;;;21.56;77.13
64792;BME280;51226;47.504;19.074;2023-07-29T04:12:04;99812.13;;;21.70;75.50
64792;BME280;51226;47.504;19.074;2023-07-29T04:15:07;99813.03;;;21.70;75.21
64792;BME280;51226;47.504;19.074;2023-07-29T04:18:10;99807.75;;;21.69;75.21
64792;BME280;51226;47.504;19.074;2023-07-29T04:21:12;99805.13;;;21.65;74.78
64792;BME280;51226;47.504;19.074;2023-07-29T04:24:16;99802.53;;;21.62;74.11
64792;BME280;51226;47.504;19.074;2023-07-29T04:27:18;99802.53;;;21.61;73.97
64792;BME280;51226;47.504;19.074;2023-07-29T04:30:21;99812.16;;;21.67;73.82
64792;BME280;51226;47.504;19.074;2023-07-29T04:33:24;99808.34;;;21.84;72.99
64792;BME280;51226;47.504;19.074;2023-07-29T04:36:27;99813.13;;;22.14;71.04
64792;BME280;51226;47.504;19.074;2023-07-29T04:39:29;99806.75;;;22.23;70.39
64792;BME280;51226;47.504;19.074;2023-07-29T04:42:32;99814.00;;;22.14;70.90
64792;BME280;51226;47.504;19.074;2023-07-29T04:45:34;99805.03;;;22.20;70.34
64792;BME280;51226;47.504;19.074;2023-07-29T04:48:37;99809.50;;;22.18;70.20
64792;BME280;51226;47.504;19.074;2023-07-29T04:51:40;99799.81;;;22.15;70.38
64792;BME280;51226;47.504;19.074;2023-07-29T04:54:43;99808.56;;;22.22;69.42
64792;BME280;51226;47.504;19.074;2023-07-29T04:57:46;99811.22;;;22.22;69.03
64792;BME280;51226;47.504;19.074;2023-07-29T05:00:49;99806.47;;;22.38;67.88
64792;BME280;51226;47.504;19.074;2023-07-29T05:03:51;99801.41;;;22.26;68.89
64792;BME280;51226;47.504;19.074;2023-07-29T05:06:54;99803.28;;;22.19;69.40
64792;BME280;51226;47.504;19.074;2023-07-29T05:09:57;99807.69;;;22.20;69.76
64792;BME280;51226;47.504;19.074;2023-07-29T05:13:00;99808.44;;;22.27;69.87
64792;BME280;51226;47.504;19.074;2023-07-29T05:16:02;99818.84;;;22.41;69.73
64792;BME280;51226;47.504;19.074;2023-07-29T05:19:08;99823.00;;;22.54;69.41
64792;BME280;51226;47.504;19.074;2023-07-29T05:22:10;99817.37;;;22.69;68.83
64792;BME280;51226;47.504;19.074;2023-07-29T05:25:13;99820.34;;;22.96;67.53
64792;BME280;51226;47.504;19.074;2023-07-29T05:28:16;99823.53;;;23.13;67.02
64792;BME280;51226;47.504;19.074;2023-07-29T05:31:19;99826.03;;;23.21;66.51
64792;BME280;51226;47.504;19.074;2023-07-29T05:34:21;99830.28;;;23.28;66.14
64792;BME280;51226;47.504;19.074;2023-07-29T05:37:24;99834.47;;;23.39;65.48
64792;BME280;51226;47.504;19.074;2023-07-29T05:40:27;99835.50;;;23.71;62.75
64792;BME280;51226;47.504;19.074;2023-07-29T05:43:30;99834.63;;;23.70;63.57
64792;BME280;51226;47.504;19.074;2023-07-29T05:46:32;99848.69;;;23.75;63.57
64792;BME280;51226;47.504;19.074;2023-07-29T05:49:35;99839.75;;;24.14;60.82
64792;BME280;51226;47.504;19.074;2023-07-29T05:52:37;99849.69;;;24.07;61.30
64792;BME280;51226;47.504;19.074;2023-07-29T05:55:41;99843.66;;;24.33;59.45
64792;BME280;51226;47.504;19.074;2023-07-29T05:58:43;99845.81;;;24.19;60.61
64792;BME280;51226;47.504;19.074;2023-07-29T06:01:47;99848.37;;;24.23;60.41
64792;BME280;51226;47.504;19.074;2023-07-29T06:04:50;99855.16;;;24.35;59.88
64792;BME280;51226;47.504;19.074;2023-07-29T06:07:53;99865.41;;;24.51;58.93
64792;BME280;51226;47.504;19.074;2023-07-29T06:10:55;99862.94;;;24.43;58.95
64792;BME280;51226;47.504;19.074;2023-07-29T06:13:58;99873.56;;;24.45;59.32
64792;BME280;51226;47.504;19.074;2023-07-29T06:17:01;99878.44;;;24.63;57.33
64792;BME280;51226;47.504;19.074;2023-07-29T06:20:04;99874.78;;;24.66;57.29
64792;BME280;51226;47.504;19.074;2023-07-29T06:23:07;99876.09;;;24.82;56.31
64792;BME280;51226;47.504;19.074;2023-07-29T06:26:10;99875.03;;;24.89;55.67
64792;BME280;51226;47.504;19.074;2023-07-29T06:29:13;99877.91;;;24.82;55.81
64792;BME280;51226;47.504;19.074;2023-07-29T06:32:16;99883.59;;;24.69;56.27
64792;BME280;51226;47.504;19.074;2023-07-29T06:35:18;99882.34;;;24.83;55.36
64792;BME280;51226;47.504;19.074;2023-07-29T06:38:21;99878.78;;;25.12;52.38
64792;BME280;51226;47.504;19.074;2023-07-29T06:41:24;99873.41;;;25.13;51.57
64792;BME280;51226;47.504;19.074;2023-07-29T06:44:27;99881.41;;;25.13;51.96
64792;BME280;51226;47.504;19.074;2023-07-29T06:47:30;99877.47;;;25.27;51.78
64792;BME280;51226;47.504;19.074;2023-07-29T06:50:32;99878.66;;;25.46;51.44
64792;BME280;51226;47.504;19.074;2023-07-29T06:53:35;99875.69;;;25.56;51.31
64792;BME280;51226;47.504;19.074;2023-07-29T06:56:38;99869.31;;;25.88;49.72
64792;BME280;51226;47.504;19.074;2023-07-29T06:59:40;99875.91;;;26.04;49.67
64792;BME280;51226;47.504;19.074;2023-07-29T07:02:43;99877.81;;;26.26;49.71
64792;BME280;51226;47.504;19.074;2023-07-29T07:05:46;99878.94;;;26.71;47.82
64792;BME280;51226;47.504;19.074;2023-07-29T07:08:49;99872.16;;;26.86;48.22
64792;BME280;51226;47.504;19.074;2023-07-29T07:11:52;99871.44;;;27.04;47.93
64792;BME280;51226;47.504;19.074;2023-07-29T07:14:55;99869.97;;;27.43;47.03
64792;BME280;51226;47.504;19.074;2023-07-29T07:17:57;99863.63;;;27.67;46.79
64792;BME280;51226;47.504;19.074;2023-07-29T07:21:00;99861.13;;;28.07;44.15
64792;BME280;51226;47.504;19.074;2023-07-29T07:24:03;99862.59;;;28.14;44.94
64792;BME280;51226;47.504;19.074;2023-07-29T07:27:05;99861.25;;;28.24;44.28
64792;BME280;51226;47.504;19.074;2023-07-29T07:30:08;99870.22;;;28.44;44.87
64792;BME280;51226;47.504;19.074;2023-07-29T07:33:11;99861.34;;;28.83;43.67
64792;BME280;51226;47.504;19.074;2023-07-29T07:36:14;99853.72;;;29.12;42.86
64792;BME280;51226;47.504;19.074;2023-07-29T07:39:18;99862.41;;;29.37;42.58
64792;BME280;51226;47.504;19.074;2023-07-29T07:42:20;99849.91;;;29.73;41.03
64792;BME280;51226;47.504;19.074;2023-07-29T07:45:23;99854.31;;;29.56;42.33
64792;BME280;51226;47.504;19.074;2023-07-29T07:48:26;99858.97;;;29.53;42.70
64792;BME280;51226;47.504;19.074;2023-07-29T07:51:29;99851.38;;;29.44;42.78
64792;BME280;51226;47.504;19.074;2023-07-29T07:54:32;99856.75;;;29.44;43.10
64792;BME280;51226;47.504;19.074;2023-07-29T07:57:34;99854.84;;;29.46;43.29
64792;BME280;51226;47.504;19.074;2023-07-29T08:00:37;99847.53;;;29.67;43.09
64792;BME280;51226;47.504;19.074;2023-07-29T08:03:40;99842.13;;;29.86;43.60
64792;BME280;51226;47.504;19.074;2023-07-29T08:06:42;99839.91;;;30.29;43.45
64792;BME280;51226;47.504;19.074;2023-07-29T08:09:45;99841.13;;;30.90;41.89
64792;BME280;51226;47.504;19.074;2023-07-29T08:12:48;99845.91;;;31.34;40.61
64792;BME280;51226;47.504;19.074;2023-07-29T08:15:51;99845.31;;;31.91;38.82
64792;BME280;51226;47.504;19.074;2023-07-29T08:18:54;99831.38;;;32.44;38.25
64792;BME280;51226;47.504;19.074;2023-07-29T08:21:57;99839.19;;;33.06;36.80
64792;BME280;51226;47.504;19.074;2023-07-29T08:25:00;99831.44;;;33.43;36.54
64792;BME280;51226;47.504;19.074;2023-07-29T08:28:03;99829.00;;;33.66;35.78
64792;BME280;51226;47.504;19.074;2023-07-29T08:31:07;99826.97;;;33.96;36.15
64792;BME280;51226;47.504;19.074;2023-07-29T08:34:10;99828.44;;;34.79;33.79
64792;BME280;51226;47.504;19.074;2023-07-29T08:37:13;99821.41;;;35.27;32.88
64792;BME280;51226;47.504;19.074;2023-07-29T08:40:16;99826.41;;;35.68;31.13
64792;BME280;51226;47.504;19.074;2023-07-29T08:43:19;99820.03;;;35.69;30.01
64792;BME280;51226;47.504;19.074;2023-07-29T08:46:23;99824.31;;;35.60;30.22
64792;BME280;51226;47.504;19.074;2023-07-29T08:49:26;99821.78;;;36.06;30.28
64792;BME280;51226;47.504;19.074;2023-07-29T08:52:29;99812.75;;;36.63;29.71
64792;BME280;51226;47.504;19.074;2023-07-29T08:55:34;99815.09;;;37.13;30.07
64792;BME280;51226;47.504;19.074;2023-07-29T08:58:37;99815.19;;;37.78;27.32
64792;BME280;51226;47.504;19.074;2023-07-29T09:01:39;99812.97;;;38.25;27.86
64792;BME280;51226;47.504;19.074;2023-07-29T09:04:42;99813.13;;;38.54;27.36
64792;BME280;51226;47.504;19.074;2023-07-29T09:07:45;99807.84;;;38.94;26.95
64792;BME280;51226;47.504;19.074;2023-07-29T09:10:49;99807.38;;;39.29;26.41
64792;BME280;51226;47.504;19.074;2023-07-29T09:13:52;99803.34;;;39.23;26.93
64792;BME280;51226;47.504;19.074;2023-07-29T09:16:55;99801.47;;;39.24;26.45
64792;BME280;51226;47.504;19.074;2023-07-29T09:20:01;99796.66;;;39.67;25.14
64792;BME280;51226;47.504;19.074;2023-07-29T09:23:07;99800.22;;;40.16;24.65
64792;BME280;51226;47.504;19.074;2023-07-29T09:26:10;99795.34;;;40.67;23.36
64792;BME280;51226;47.504;19.074;2023-07-29T09:29:13;99796.47;;;40.64;22.33
64792;BME280;51226;47.504;19.074;2023-07-29T09:32:19;99796.78;;;40.14;22.51
64792;BME280;51226;47.504;19.074;2023-07-29T09:35:23;99791.59;;;40.58;21.92
64792;BME280;51226;47.504;19.074;2023-07-29T09:38:26;99788.19;;;41.11;21.83
64792;BME280;51226;47.504;19.074;2023-07-29T09:41:32;99780.81;;;41.58;21.75
64792;BME280;51226;47.504;19.074;2023-07-29T09:44:37;99772.81;;;41.46;21.34
64792;BME280;51226;47.504;19.074;2023-07-29T09:47:45;99780.19;;;41.28;21.10
64792;BME280;51226;47.504;19.074;2023-07-29T09:51:13;99773.44;;;40.67;21.25
64792;BME280;51226;47.504;19.074;2023-07-29T09:54:19;99776.09;;;39.82;22.85
64792;BME280;51226;47.504;19.074;2023-07-29T10:01:24;99761.34;;;40.69;22.39
64792;BME280;51226;47.504;19.074;2023-07-29T10:08:27;99757.72;;;42.23;20.20
64792;BME280;51226;47.504;19.074;2023-07-29T10:11:31;99756.34;;;42.87;19.04
64792;BME280;51226;47.504;19.074;2023-07-29T10:14:34;99761.88;;;43.12;18.51
64792;BME280;51226;47.504;19.074;2023-07-29T10:17:38;99755.72;;;43.10;18.51
64792;BME280;51226;47.504;19.074;2023-07-29T10:20:41;99755.09;;;43.57;17.97
64792;BME280;51226;47.504;19.074;2023-07-29T10:23:47;99758.91;;;43.73;18.09
64792;BME280;51226;47.504;19.074;2023-07-29T10:26:57;99757.50;;;44.10;17.78
64792;BME280;51226;47.504;19.074;2023-07-29T10:41:01;99747.38;;;43.94;17.61
64792;BME280;51226;47.504;19.074;2023-07-29T10:52:03;99739.34;;;40.61;20.80
64792;BME280;51226;47.504;19.074;2023-07-29T10:55:26;99741.78;;;39.60;22.08
64792;BME280;51226;47.504;19.074;2023-07-29T10:58:45;99736.41;;;39.29;22.48
64792;BME280;51226;47.504;19.074;2023-07-29T11:08:45;99736.09;;;37.79;24.58
64792;BME280;51226;47.504;19.074;2023-07-29T11:11:49;99740.38;;;38.24;24.49
64792;BME280;51226;47.504;19.074;2023-07-29T11:14:53;99738.66;;;38.95;23.56
64792;BME280;51226;47.504;19.074;2023-07-29T11:17:59;99731.38;;;39.05;22.27
64792;BME280;51226;47.504;19.074;2023-07-29T11:21:03;99728.91;;;39.02;22.96
64792;BME280;51226;47.504;19.074;2023-07-29T11:24:05;99735.00;;;39.25;22.75
64792;BME280;51226;47.504;19.074;2023-07-29T11:27:11;99727.84;;;39.63;22.44
64792;BME280;51226;47.504;19.074;2023-07-29T11:30:14;99726.66;;;40.32;21.75
64792;BME280;51226;47.504;19.074;2023-07-29T11:33:19;99729.66;;;40.77;21.71
64792;BME280;51226;47.504;19.074;2023-07-29T11:36:24;99727.41;;;40.62;21.30
64792;BME280;51226;47.504;19.074;2023-07-29T11:39:27;99729.09;;;39.49;21.79
64792;BME280;51226;47.504;19.074;2023-07-29T11:42:31;99719.00;;;37.98;23.75
64792;BME280;51226;47.504;19.074;2023-07-29T11:45:34;99727.03;;;36.82;25.41
64792;BME280;51226;47.504;19.074;2023-07-29T11:48:55;99723.47;;;37.14;25.77
64792;BME280;51226;47.504;19.074;2023-07-29T11:51:58;99714.19;;;37.81;24.48
64792;BME280;51226;47.504;19.074;2023-07-29T11:55:01;99712.81;;;37.33;25.76
64792;BME280;51226;47.504;19.074;2023-07-29T11:58:05;99708.81;;;37.05;25.91
64792;BME280;51226;47.504;19.074;2023-07-29T12:01:08;99708.12;;;36.80;26.17
64792;BME280;51226;47.504;19.074;2023-07-29T12:04:12;99700.84;;;36.69;26.16
64792;BME280;51226;47.504;19.074;2023-07-29T12:07:16;99699.13;;;36.57;25.05
64792;BME280;51226;47.504;19.074;2023-07-29T12:10:19;99705.06;;;36.51;25.16
64792;BME280;51226;47.504;19.074;2023-07-29T12:13:24;99697.63;;;36.08;24.83
64792;BME280;51226;47.504;19.074;2023-07-29T12:16:28;99689.94;;;35.32;25.72
64792;BME280;51226;47.504;19.074;2023-07-29T12:19:38;99699.06;;;35.18;26.22
64792;BME280;51226;47.504;19.074;2023-07-29T12:22:41;99686.38;;;35.43;25.65
64792;BME280;51226;47.504;19.074;2023-07-29T12:25:43;99684.34;;;35.22;26.74
64792;BME280;51226;47.504;19.074;2023-07-29T12:28:46;99678.44;;;35.29;26.85
64792;BME280;51226;47.504;19.074;2023-07-29T12:31:56;99675.41;;;35.44;27.27
64792;BME280;51226;47.504;19.074;2023-07-29T12:35:00;99681.66;;;35.10;27.46
64792;BME280;51226;47.504;19.074;2023-07-29T12:38:03;99681.25;;;34.79;26.36
64792;BME280;51226;47.504;19.074;2023-07-29T12:41:06;99683.06;;;34.41;27.21
64792;BME280;51226;47.504;19.074;2023-07-29T12:44:08;99668.69;;;34.02;27.35
64792;BME280;51226;47.504;19.074;2023-07-29T12:47:11;99680.41;;;33.90;27.16
64792;BME280;51226;47.504;19.074;2023-07-29T12:50:14;99670.28;;;33.66;27.89
64792;BME280;51226;47.504;19.074;2023-07-29T12:53:17;99665.72;;;33.54;28.20
64792;BME280;51226;47.504;19.074;2023-07-29T12:56:20;99661.91;;;33.96;27.26
64792;BME280;51226;47.504;19.074;2023-07-29T12:59:23;99661.91;;;33.96;27.16
64792;BME280;51226;47.504;19.074;2023-07-29T13:02:25;99665.34;;;33.86;27.38
64792;BME280;51226;47.504;19.074;2023-07-29T13:05:29;99664.81;;;33.93;27.23
64792;BME280;51226;47.504;19.074;2023-07-29T13:08:31;99669.09;;;34.47;26.62
64792;BME280;51226;47.504;19.074;2023-07-29T13:11:34;99656.75;;;35.29;25.59
64792;BME280;51226;47.504;19.074;2023-07-29T13:14:37;99656.00;;;35.73;24.97
64792;BME280;51226;47.504;19.074;2023-07-29T13:17:40;99656.16;;;35.83;24.58
64792;BME280;51226;47.504;19.074;2023-07-29T13:20:43;99650.87;;;36.04;25.07
64792;BME280;51226;47.504;19.074;2023-07-29T13:23:46;99644.81;;;36.34;25.16
64792;BME280;51226;47.504;19.074;2023-07-29T13:26:49;99647.34;;;36.59;25.23
64792;BME280;51226;47.504;19.074;2023-07-29T13:29:52;99648.66;;;36.87;24.44
64792;BME280;51226;47.504;19.074;2023-07-29T13:32:54;99649.69;;;36.63;24.89
64792;BME280;51226;47.504;19.074;2023-07-29T13:35:57;99647.75;;;36.54;25.40
64792;BME280;51226;47.504;19.074;2023-07-29T13:39:00;99642.81;;;36.70;24.89
64792;BME280;51226;47.504;19.074;2023-07-29T13:42:03;99630.06;;;36.60;24.78
64792;BME280;51226;47.504;19.074;2023-07-29T13:45:06;99629.88;;;36.06;26.01
64792;BME280;51226;47.504;19.074;2023-07-29T13:48:09;99628.00;;;36.07;26.53
64792;BME280;51226;47.504;19.074;2023-07-29T13:51:11;99622.13;;;36.24;26.43
64792;BME280;51226;47.504;19.074;2023-07-29T13:54:14;99611.97;;;36.38;25.81
64792;BME280;51226;47.504;19.074;2023-07-29T13:57:17;99610.19;;;36.59;24.65
64792;BME280;51226;47.504;19.074;2023-07-29T14:00:20;99606.41;;;36.50;25.16
64792;BME280;51226;47.504;19.074;2023-07-29T14:03:22;99610.84;;;36.40;25.60
64792;BME280;51226;47.504;19.074;2023-07-29T14:06:25;99606.44;;;36.28;25.59
64792;BME280;51226;47.504;19.074;2023-07-29T14:09:46;99597.53;;;36.14;25.60
64792;BME280;51226;47.504;19.074;2023-07-29T14:12:49;99597.19;;;36.30;25.25
64792;BME280;51226;47.504;19.074;2023-07-29T14:15:52;99593.59;;;36.07;25.44
64792;BME280;51226;47.504;19.074;2023-07-29T14:18:55;99595.97;;;36.01;25.13
64792;BME280;51226;47.504;19.074;2023-07-29T14:21:57;99584.50;;;35.86;25.42
64792;BME280;51226;47.504;19.074;2023-07-29T14:25:00;99575.94;;;35.68;25.55
64792;BME280;51226;47.504;19.074;2023-07-29T14:28:03;99575.66;;;35.48;26.21
64792;BME280;51226;47.504;19.074;2023-07-29T14:31:06;99582.63;;;35.17;26.46
64792;BME280;51226;47.504;19.074;2023-07-29T14:34:09;99583.94;;;35.11;26.51
64792;BME280;51226;47.504;19.074;2023-07-29T14:37:12;99583.09;;;34.75;27.22
64792;BME280;51226;47.504;19.074;2023-07-29T14:40:14;99589.59;;;34.60;27.07
64792;BME280;51226;47.504;19.074;2023-07-29T14:43:17;99577.56;;;34.40;27.47
64792;BME280;51226;47.504;19.074;2023-07-29T14:46:19;99580.66;;;34.22;27.54
64792;BME280;51226;47.504;19.074;2023-07-29T14:49:22;99581.69;;;33.95;27.99
64792;BME280;51226;47.504;19.074;2023-07-29T14:52:25;99584.84;;;33.76;28.42
64792;BME280;51226;47.504;19.074;2023-07-29T14:55:27;99583.66;;;33.55;28.73
64792;BME280;51226;47.504;19.074;2023-07-29T14:58:30;99587.66;;;33.36;29.06
64792;BME280;51226;47.504;19.074;2023-07-29T15:01:33;99577.38;;;33.41;28.90
64792;BME280;51226;47.504;19.074;2023-07-29T15:04:35;99586.50;;;33.13;29.51
64792;BME280;51226;47.504;19.074;2023-07-29T15:07:38;99578.41;;;32.86;30.36
64792;BME280;51226;47.504;19.074;2023-07-29T15:10:44;99574.22;;;32.82;30.34
64792;BME280;51226;47.504;19.074;2023-07-29T15:13:47;99579.09;;;32.62;31.12
64792;BME280;51226;47.504;19.074;2023-07-29T15:16:50;99583.56;;;32.49;31.61
64792;BME280;51226;47.504;19.074;2023-07-29T15:19:52;99576.56;;;32.59;31.23
64792;BME280;51226;47.504;19.074;2023-07-29T15:22:55;99578.72;;;32.54;31.48
64792;BME280;51226;47.504;19.074;2023-07-29T15:25:58;99585.66;;;32.58;31.51
64792;BME280;51226;47.504;19.074;2023-07-29T15:29:01;99591.06;;;32.58;31.38
64792;BME280;51226;47.504;19.074;2023-07-29T15:32:05;99584.66;;;32.46;31.72
64792;BME280;51226;47.504;19.074;2023-07-29T15:35:08;99575.19;;;32.39;32.16
64792;BME280;51226;47.504;19.074;2023-07-29T15:38:10;99581.03;;;32.33;32.28
64792;BME280;51226;47.504;19.074;2023-07-29T15:41:13;99586.00;;;32.39;31.96
64792;BME280;51226;47.504;19.074;2023-07-29T15:44:16;99580.38;;;32.15;32.46
64792;BME280;51226;47.504;19.074;2023-07-29T15:47:18;99579.81;;;32.10;32.47
64792;BME280;51226;47.504;19.074;2023-07-29T15:50:21;99579.81;;;31.81;33.08
64792;BME280;51226;47.504;19.074;2023-07-29T15:53:24;99582.22;;;31.57;33.44
64792;BME280;51226;47.504;19.074;2023-07-29T15:56:30;99588.84;;;31.66;32.83
64792;BME280;51226;47.504;19.074;2023-07-29T15:59:32;99588.34;;;31.45;33.27
64792;BME280;51226;47.504;19.074;2023-07-29T16:02:35;99594.38;;;31.19;33.92
64792;BME280;51226;47.504;19.074;2023-07-29T16:05:38;99594.72;;;31.13;34.17
64792;BME280;51226;47.504;19.074;2023-07-29T16:08:40;99595.47;;;31.01;34.45
64792;BME280;51226;47.504;19.074;2023-07-29T16:11:43;99604.13;;;30.90;34.86
64792;BME280;51226;47.504;19.074;2023-07-29T16:14:46;99604.50;;;31.00;34.74
64792;BME280;51226;47.504;19.074;2023-07-29T16:17:48;99602.75;;;30.99;34.72
64792;BME280;51226;47.504;19.074;2023-07-29T16:20:55;99606.91;;;30.89;34.98
64792;BME280;51226;47.504;19.074;2023-07-29T16:24:03;99615.62;;;30.78;35.39
64792;BME280;51226;47.504;19.074;2023-07-29T16:27:06;99618.94;;;30.67;35.84
64792;BME280;51226;47.504;19.074;2023-07-29T16:30:09;99614.28;;;30.55;35.99
64792;BME280;51226;47.504;19.074;2023-07-29T16:33:12;99616.69;;;30.43;36.32
64792;BME280;51226;47.504;19.074;2023-07-29T16:36:15;99625.38;;;30.33;36.60